sensor_id;sensor_type;location;lat;lon;timestamp;P1;durP1;ratioP1;P2;durP2;ratioP2
8319;SDS011;4197;42.130;24.746;2023-04-01T00:00:53;15.53;;;7.23;;
8319;SDS011;4197;42.130;24.746;2023-04-01T00:03:22;10.13;;;7.47;;
8319;SDS011;4197;42.130;24.746;2023-04-01T00:05:52;10.40;;;6.53;;
8319;SDS011;4197;42.130;24.746;2023-04-01T00:08:20;8.80;;;7.00;;
8319;SDS011;4197;42.130;24.746;2023-04-01T00:10:48;10.30;;;6.87;;
8319;SDS011;4197;42.130;24.746;2023-04-01T00:13:18;10.30;;;7.43;;
8319;SDS011;4197;42.130;24.746;2023-04-01T00:15:47;12.77;;;7.03;;
8319;SDS011;4197;42.130;24.746;2023-04-01T00:18:15;12.67;;;6.53;;
8319;SDS011;4197;42.130;24.746;2023-04-01T00:20:44;10.47;;;7.13;;
8319;SDS011;4197;42.130;24.746;2023-04-01T00:23:14;9.90;;;6.80;;
8319;SDS011;4197;42.130;24.746;2023-04-01T00:25:43;13.50;;;7.00;;
8319;SDS011;4197;42.130;24.746;2023-04-01T00:28:11;10.33;;;6.50;;
8319;SDS011;4197;42.130;24.746;2023-04-01T00:30:41;9.27;;;6.67;;
8319;SDS011;4197;42.130;24.746;2023-04-01T00:33:09;14.47;;;9.57;;
8319;SDS011;4197;42.130;24.746;2023-04-01T00:35:38;15.47;;;8.93;;
8319;SDS011;4197;42.130;24.746;2023-04-01T00:38:06;13.17;;;9.50;;
8319;SDS011;4197;42.130;24.746;2023-04-01T00:40:36;17.50;;;9.50;;
8319;SDS011;4197;42.130;24.746;2023-04-01T00:43:09;12.70;;;9.77;;
8319;SDS011;4197;42.130;24.746;2023-04-01T00:45:41;15.43;;;9.00;;
8319;SDS011;4197;42.130;24.746;2023-04-01T00:48:11;16.20;;;10.33;;
8319;SDS011;4197;42.130;24.746;2023-04-01T00:50:43;15.27;;;10.33;;
8319;SDS011;4197;42.130;24.746;2023-04-01T00:53:13;15.40;;;10.30;;
8319;SDS011;4197;42.130;24.746;2023-04-01T00:55:45;17.50;;;10.30;;
8319;SDS011;4197;42.130;24.746;2023-04-01T00:58:18;16.90;;;9.73;;
8319;SDS011;4197;42.130;24.746;2023-04-01T01:00:50;17.33;;;9.90;;
8319;SDS011;4197;42.130;24.746;2023-04-01T01:03:19;15.53;;;10.00;;
8319;SDS011;4197;42.130;24.746;2023-04-01T01:05:52;12.40;;;9.70;;
8319;SDS011;4197;42.130;24.746;2023-04-01T01:08:34;18.27;;;10.23;;
8319;SDS011;4197;42.130;24.746;2023-04-01T01:11:11;14.33;;;9.90;;
8319;SDS011;4197;42.130;24.746;2023-04-01T01:13:47;13.40;;;8.83;;
8319;SDS011;4197;42.130;24.746;2023-04-01T01:16:23;15.40;;;9.17;;
8319;SDS011;4197;42.130;24.746;2023-04-01T01:18:55;15.63;;;9.47;;
8319;SDS011;4197;42.130;24.746;2023-04-01T01:21:45;13.87;;;9.23;;
8319;SDS011;4197;42.130;24.746;2023-04-01T01:27:23;12.43;;;9.40;;
8319;SDS011;4197;42.130;24.746;2023-04-01T01:30:09;15.93;;;9.87;;
8319;SDS011;4197;42.130;24.746;2023-04-01T01:33:06;17.77;;;9.33;;
8319;SDS011;4197;42.130;24.746;2023-04-01T01:35:56;15.07;;;10.37;;
8319;SDS011;4197;42.130;24.746;2023-04-01T01:38:26;14.07;;;9.50;;
8319;SDS011;4197;42.130;24.746;2023-04-01T01:40:58;16.00;;;10.43;;
8319;SDS011;4197;42.130;24.746;2023-04-01T01:43:30;12.00;;;9.67;;
8319;SDS011;4197;42.130;24.746;2023-04-01T01:46:01;13.93;;;10.07;;
8319;SDS011;4197;42.130;24.746;2023-04-01T01:48:34;15.23;;;9.57;;
8319;SDS011;4197;42.130;24.746;2023-04-01T01:51:06;16.10;;;8.63;;
8319;SDS011;4197;42.130;24.746;2023-04-01T01:53:35;14.87;;;9.50;;
8319;SDS011;4197;42.130;24.746;2023-04-01T01:56:04;14.20;;;9.43;;
8319;SDS011;4197;42.130;24.746;2023-04-01T01:58:35;22.50;;;10.70;;
8319;SDS011;4197;42.130;24.746;2023-04-01T02:01:08;19.63;;;10.13;;
8319;SDS011;4197;42.130;24.746;2023-04-01T02:03:42;18.40;;;10.60;;
8319;SDS011;4197;42.130;24.746;2023-04-01T02:06:15;19.03;;;11.00;;
8319;SDS011;4197;42.130;24.746;2023-04-01T02:08:47;16.43;;;10.50;;
8319;SDS011;4197;42.130;24.746;2023-04-01T02:11:21;15.80;;;11.20;;
8319;SDS011;4197;42.130;24.746;2023-04-01T02:13:54;15.23;;;10.63;;
8319;SDS011;4197;42.130;24.746;2023-04-01T02:16:28;18.43;;;11.63;;
8319;SDS011;4197;42.130;24.746;2023-04-01T02:19:00;13.33;;;10.83;;
8319;SDS011;4197;42.130;24.746;2023-04-01T02:21:35;15.10;;;10.83;;
8319;SDS011;4197;42.130;24.746;2023-04-01T02:24:07;14.77;;;10.73;;
8319;SDS011;4197;42.130;24.746;2023-04-01T02:26:38;15.73;;;11.90;;
8319;SDS011;4197;42.130;24.746;2023-04-01T02:29:08;14.33;;;11.57;;
8319;SDS011;4197;42.130;24.746;2023-04-01T02:31:39;17.20;;;13.40;;
8319;SDS011;4197;42.130;24.746;2023-04-01T02:34:09;17.93;;;12.30;;
8319;SDS011;4197;42.130;24.746;2023-04-01T02:36:38;17.70;;;12.90;;
8319;SDS011;4197;42.130;24.746;2023-04-01T02:39:07;16.73;;;13.27;;
8319;SDS011;4197;42.130;24.746;2023-04-01T02:41:38;17.60;;;11.87;;
8319;SDS011;4197;42.130;24.746;2023-04-01T02:44:07;14.97;;;11.50;;
8319;SDS011;4197;42.130;24.746;2023-04-01T02:46:36;16.83;;;12.20;;
8319;SDS011;4197;42.130;24.746;2023-04-01T02:49:05;25.90;;;12.73;;
8319;SDS011;4197;42.130;24.746;2023-04-01T02:51:33;17.80;;;12.57;;
8319;SDS011;4197;42.130;24.746;2023-04-01T02:54:03;23.70;;;13.33;;
8319;SDS011;4197;42.130;24.746;2023-04-01T02:56:31;19.03;;;11.97;;
8319;SDS011;4197;42.130;24.746;2023-04-01T02:59:00;16.47;;;11.67;;
8319;SDS011;4197;42.130;24.746;2023-04-01T03:01:28;16.03;;;12.07;;
8319;SDS011;4197;42.130;24.746;2023-04-01T03:03:56;17.90;;;12.03;;
8319;SDS011;4197;42.130;24.746;2023-04-01T03:06:24;17.87;;;13.20;;
8319;SDS011;4197;42.130;24.746;2023-04-01T03:08:53;23.47;;;13.57;;
8319;SDS011;4197;42.130;24.746;2023-04-01T03:11:23;18.17;;;13.20;;
8319;SDS011;4197;42.130;24.746;2023-04-01T03:13:52;21.07;;;13.90;;
8319;SDS011;4197;42.130;24.746;2023-04-01T03:16:20;22.67;;;13.90;;
8319;SDS011;4197;42.130;24.746;2023-04-01T03:18:51;18.53;;;13.57;;
8319;SDS011;4197;42.130;24.746;2023-04-01T03:21:25;18.17;;;12.33;;
8319;SDS011;4197;42.130;24.746;2023-04-01T03:23:54;18.27;;;12.87;;
8319;SDS011;4197;42.130;24.746;2023-04-01T03:26:23;18.03;;;12.93;;
8319;SDS011;4197;42.130;24.746;2023-04-01T03:28:53;19.63;;;12.93;;
8319;SDS011;4197;42.130;24.746;2023-04-01T03:31:21;21.27;;;13.23;;
8319;SDS011;4197;42.130;24.746;2023-04-01T03:33:50;17.57;;;13.17;;
8319;SDS011;4197;42.130;24.746;2023-04-01T03:36:21;18.40;;;13.07;;
8319;SDS011;4197;42.130;24.746;2023-04-01T03:38:50;18.43;;;13.00;;
8319;SDS011;4197;42.130;24.746;2023-04-01T03:41:18;18.83;;;13.13;;
8319;SDS011;4197;42.130;24.746;2023-04-01T03:43:49;20.83;;;13.57;;
8319;SDS011;4197;42.130;24.746;2023-04-01T03:46:17;17.93;;;13.37;;
8319;SDS011;4197;42.130;24.746;2023-04-01T03:48:45;24.77;;;14.67;;
8319;SDS011;4197;42.130;24.746;2023-04-01T03:51:14;17.80;;;14.13;;
8319;SDS011;4197;42.130;24.746;2023-04-01T03:53:43;17.13;;;13.80;;
8319;SDS011;4197;42.130;24.746;2023-04-01T03:56:12;20.40;;;14.10;;
8319;SDS011;4197;42.130;24.746;2023-04-01T03:58:40;24.43;;;14.00;;
8319;SDS011;4197;42.130;24.746;2023-04-01T04:01:17;17.73;;;13.70;;
8319;SDS011;4197;42.130;24.746;2023-04-01T04:03:47;17.47;;;13.13;;
8319;SDS011;4197;42.130;24.746;2023-04-01T04:06:17;20.97;;;13.20;;
8319;SDS011;4197;42.130;24.746;2023-04-01T04:08:46;19.33;;;13.13;;
8319;SDS011;4197;42.130;24.746;2023-04-01T04:11:15;21.13;;;13.07;;
8319;SDS011;4197;42.130;24.746;2023-04-01T04:13:43;18.67;;;12.63;;
8319;SDS011;4197;42.130;24.746;2023-04-01T04:16:11;17.70;;;12.23;;
8319;SDS011;4197;42.130;24.746;2023-04-01T04:18:41;21.93;;;12.70;;
8319;SDS011;4197;42.130;24.746;2023-04-01T04:21:11;19.63;;;11.67;;
8319;SDS011;4197;42.130;24.746;2023-04-01T04:23:41;17.23;;;11.60;;
8319;SDS011;4197;42.130;24.746;2023-04-01T04:26:14;15.70;;;11.17;;
8319;SDS011;4197;42.130;24.746;2023-04-01T04:28:42;12.97;;;10.67;;
8319;SDS011;4197;42.130;24.746;2023-04-01T04:31:11;14.90;;;11.17;;
8319;SDS011;4197;42.130;24.746;2023-04-01T04:33:41;16.43;;;9.60;;
8319;SDS011;4197;42.130;24.746;2023-04-01T04:36:09;14.53;;;9.50;;
8319;SDS011;4197;42.130;24.746;2023-04-01T04:38:37;19.67;;;10.30;;
8319;SDS011;4197;42.130;24.746;2023-04-01T04:41:08;30.20;;;10.83;;
8319;SDS011;4197;42.130;24.746;2023-04-01T04:43:38;22.63;;;9.40;;
8319;SDS011;4197;42.130;24.746;2023-04-01T04:46:07;17.60;;;10.77;;
8319;SDS011;4197;42.130;24.746;2023-04-01T04:48:36;15.60;;;9.97;;
8319;SDS011;4197;42.130;24.746;2023-04-01T04:51:06;12.83;;;9.97;;
8319;SDS011;4197;42.130;24.746;2023-04-01T04:53:36;17.73;;;10.80;;
8319;SDS011;4197;42.130;24.746;2023-04-01T04:56:05;14.67;;;9.77;;
8319;SDS011;4197;42.130;24.746;2023-04-01T04:58:33;14.10;;;10.07;;
8319;SDS011;4197;42.130;24.746;2023-04-01T05:01:05;16.00;;;9.97;;
8319;SDS011;4197;42.130;24.746;2023-04-01T05:03:34;12.20;;;9.33;;
8319;SDS011;4197;42.130;24.746;2023-04-01T05:06:03;13.43;;;9.37;;
8319;SDS011;4197;42.130;24.746;2023-04-01T05:08:33;16.73;;;9.13;;
8319;SDS011;4197;42.130;24.746;2023-04-01T05:11:02;17.93;;;9.93;;
8319;SDS011;4197;42.130;24.746;2023-04-01T05:13:30;17.30;;;8.83;;
8319;SDS011;4197;42.130;24.746;2023-04-01T05:15:59;14.60;;;8.50;;
8319;SDS011;4197;42.130;24.746;2023-04-01T05:18:27;16.97;;;8.40;;
8319;SDS011;4197;42.130;24.746;2023-04-01T05:20:55;13.17;;;9.17;;
8319;SDS011;4197;42.130;24.746;2023-04-01T05:23:24;21.73;;;10.10;;
8319;SDS011;4197;42.130;24.746;2023-04-01T05:25:56;19.30;;;10.23;;
8319;SDS011;4197;42.130;24.746;2023-04-01T05:28:24;19.23;;;8.93;;
8319;SDS011;4197;42.130;24.746;2023-04-01T05:30:53;17.10;;;10.23;;
8319;SDS011;4197;42.130;24.746;2023-04-01T05:33:21;16.90;;;8.87;;
8319;SDS011;4197;42.130;24.746;2023-04-01T05:35:50;22.27;;;10.07;;
8319;SDS011;4197;42.130;24.746;2023-04-01T05:38:18;18.23;;;8.77;;
8319;SDS011;4197;42.130;24.746;2023-04-01T05:40:46;17.00;;;9.50;;
8319;SDS011;4197;42.130;24.746;2023-04-01T05:43:17;13.00;;;8.43;;
8319;SDS011;4197;42.130;24.746;2023-04-01T05:45:45;16.77;;;8.43;;
8319;SDS011;4197;42.130;24.746;2023-04-01T05:48:16;16.80;;;9.63;;
8319;SDS011;4197;42.130;24.746;2023-04-01T05:50:44;15.40;;;10.63;;
8319;SDS011;4197;42.130;24.746;2023-04-01T05:53:12;12.47;;;8.77;;
8319;SDS011;4197;42.130;24.746;2023-04-01T05:55:41;19.67;;;11.33;;
8319;SDS011;4197;42.130;24.746;2023-04-01T05:58:09;16.67;;;7.60;;
8319;SDS011;4197;42.130;24.746;2023-04-01T06:00:39;18.50;;;8.10;;
8319;SDS011;4197;42.130;24.746;2023-04-01T06:03:07;16.43;;;9.70;;
8319;SDS011;4197;42.130;24.746;2023-04-01T06:05:38;12.47;;;9.37;;
8319;SDS011;4197;42.130;24.746;2023-04-01T06:08:10;15.37;;;8.47;;
8319;SDS011;4197;42.130;24.746;2023-04-01T06:10:43;15.03;;;9.23;;
8319;SDS011;4197;42.130;24.746;2023-04-01T06:13:21;18.47;;;8.87;;
8319;SDS011;4197;42.130;24.746;2023-04-01T06:16:07;16.23;;;8.40;;
8319;SDS011;4197;42.130;24.746;2023-04-01T06:18:53;15.77;;;8.13;;
8319;SDS011;4197;42.130;24.746;2023-04-01T06:21:36;16.93;;;7.97;;
8319;SDS011;4197;42.130;24.746;2023-04-01T06:24:39;19.87;;;9.03;;
8319;SDS011;4197;42.130;24.746;2023-04-01T06:27:26;18.63;;;9.20;;
8319;SDS011;4197;42.130;24.746;2023-04-01T06:30:10;21.03;;;9.33;;
8319;SDS011;4197;42.130;24.746;2023-04-01T06:33:00;20.87;;;11.23;;
8319;SDS011;4197;42.130;24.746;2023-04-01T06:35:41;26.23;;;11.77;;
8319;SDS011;4197;42.130;24.746;2023-04-01T06:38:25;15.27;;;9.47;;
8319;SDS011;4197;42.130;24.746;2023-04-01T06:41:11;28.50;;;21.13;;
8319;SDS011;4197;42.130;24.746;2023-04-01T06:44:04;18.03;;;11.07;;
8319;SDS011;4197;42.130;24.746;2023-04-01T06:46:44;19.27;;;9.10;;
8319;SDS011;4197;42.130;24.746;2023-04-01T06:49:24;17.00;;;10.13;;
8319;SDS011;4197;42.130;24.746;2023-04-01T06:52:02;12.10;;;8.97;;
8319;SDS011;4197;42.130;24.746;2023-04-01T06:54:39;21.23;;;11.53;;
8319;SDS011;4197;42.130;24.746;2023-04-01T06:57:15;13.57;;;7.93;;
8319;SDS011;4197;42.130;24.746;2023-04-01T06:59:51;13.77;;;9.30;;
8319;SDS011;4197;42.130;24.746;2023-04-01T07:02:25;31.83;;;10.70;;
8319;SDS011;4197;42.130;24.746;2023-04-01T07:05:02;14.97;;;8.87;;
8319;SDS011;4197;42.130;24.746;2023-04-01T07:07:34;17.53;;;9.07;;
8319;SDS011;4197;42.130;24.746;2023-04-01T07:10:06;37.20;;;11.27;;
8319;SDS011;4197;42.130;24.746;2023-04-01T07:12:43;19.50;;;9.23;;
8319;SDS011;4197;42.130;24.746;2023-04-01T07:15:16;11.87;;;7.03;;
8319;SDS011;4197;42.130;24.746;2023-04-01T07:17:51;17.03;;;7.87;;
8319;SDS011;4197;42.130;24.746;2023-04-01T07:20:24;14.03;;;8.23;;
8319;SDS011;4197;42.130;24.746;2023-04-01T07:22:56;13.10;;;7.27;;
8319;SDS011;4197;42.130;24.746;2023-04-01T07:25:31;29.70;;;8.70;;
8319;SDS011;4197;42.130;24.746;2023-04-01T07:28:04;15.33;;;7.83;;
8319;SDS011;4197;42.130;24.746;2023-04-01T07:30:35;19.20;;;10.90;;
8319;SDS011;4197;42.130;24.746;2023-04-01T07:33:13;18.87;;;13.60;;
8319;SDS011;4197;42.130;24.746;2023-04-01T07:35:50;24.60;;;17.40;;
8319;SDS011;4197;42.130;24.746;2023-04-01T07:38:24;15.27;;;10.90;;
8319;SDS011;4197;42.130;24.746;2023-04-01T07:41:04;15.20;;;10.43;;
8319;SDS011;4197;42.130;24.746;2023-04-01T07:43:44;10.07;;;7.27;;
8319;SDS011;4197;42.130;24.746;2023-04-01T07:46:29;19.93;;;8.03;;
8319;SDS011;4197;42.130;24.746;2023-04-01T07:49:09;26.80;;;8.63;;
8319;SDS011;4197;42.130;24.746;2023-04-01T07:51:44;13.63;;;7.00;;
8319;SDS011;4197;42.130;24.746;2023-04-01T07:54:21;19.33;;;7.93;;
8319;SDS011;4197;42.130;24.746;2023-04-01T07:56:55;18.63;;;7.30;;
8319;SDS011;4197;42.130;24.746;2023-04-01T07:59:30;18.53;;;7.37;;
8319;SDS011;4197;42.130;24.746;2023-04-01T08:02:10;15.87;;;7.10;;
8319;SDS011;4197;42.130;24.746;2023-04-01T08:04:51;13.63;;;7.20;;
8319;SDS011;4197;42.130;24.746;2023-04-01T08:07:30;18.27;;;9.77;;
8319;SDS011;4197;42.130;24.746;2023-04-01T08:10:05;15.00;;;7.20;;
8319;SDS011;4197;42.130;24.746;2023-04-01T08:12:47;28.00;;;7.90;;
8319;SDS011;4197;42.130;24.746;2023-04-01T08:15:21;16.83;;;7.07;;
8319;SDS011;4197;42.130;24.746;2023-04-01T08:17:57;15.00;;;7.10;;
8319;SDS011;4197;42.130;24.746;2023-04-01T08:20:33;10.83;;;6.70;;
8319;SDS011;4197;42.130;24.746;2023-04-01T08:23:10;8.37;;;6.93;;
8319;SDS011;4197;42.130;24.746;2023-04-01T08:25:43;13.40;;;7.53;;
8319;SDS011;4197;42.130;24.746;2023-04-01T08:28:17;10.10;;;6.70;;
8319;SDS011;4197;42.130;24.746;2023-04-01T08:30:53;11.57;;;6.47;;
8319;SDS011;4197;42.130;24.746;2023-04-01T08:33:26;11.10;;;6.63;;
8319;SDS011;4197;42.130;24.746;2023-04-01T08:36:02;13.73;;;6.80;;
8319;SDS011;4197;42.130;24.746;2023-04-01T08:38:36;9.90;;;6.93;;
8319;SDS011;4197;42.130;24.746;2023-04-01T08:41:16;15.67;;;7.40;;
8319;SDS011;4197;42.130;24.746;2023-04-01T08:44:04;10.07;;;7.63;;
8319;SDS011;4197;42.130;24.746;2023-04-01T08:47:04;17.30;;;7.33;;
8319;SDS011;4197;42.130;24.746;2023-04-01T08:49:54;7.87;;;6.37;;
8319;SDS011;4197;42.130;24.746;2023-04-01T08:52:48;11.13;;;7.37;;
8319;SDS011;4197;42.130;24.746;2023-04-01T08:55:30;11.13;;;7.10;;
8319;SDS011;4197;42.130;24.746;2023-04-01T08:58:16;11.80;;;7.67;;
8319;SDS011;4197;42.130;24.746;2023-04-01T09:01:03;13.63;;;8.17;;
8319;SDS011;4197;42.130;24.746;2023-04-01T09:03:49;18.83;;;7.70;;
8319;SDS011;4197;42.130;24.746;2023-04-01T09:06:37;12.30;;;7.23;;
8319;SDS011;4197;42.130;24.746;2023-04-01T09:09:21;10.77;;;7.70;;
8319;SDS011;4197;42.130;24.746;2023-04-01T09:12:24;18.67;;;9.03;;
8319;SDS011;4197;42.130;24.746;2023-04-01T09:15:01;12.87;;;7.67;;
8319;SDS011;4197;42.130;24.746;2023-04-01T09:21:04;17.70;;;8.63;;
8319;SDS011;4197;42.130;24.746;2023-04-01T09:24:14;37.90;;;12.80;;
8319;SDS011;4197;42.130;24.746;2023-04-01T09:27:04;17.13;;;8.63;;
8319;SDS011;4197;42.130;24.746;2023-04-01T09:29:53;11.53;;;7.27;;
8319;SDS011;4197;42.130;24.746;2023-04-01T09:32:42;14.10;;;6.57;;
8319;SDS011;4197;42.130;24.746;2023-04-01T09:35:38;20.03;;;6.87;;
8319;SDS011;4197;42.130;24.746;2023-04-01T09:38:22;11.20;;;7.57;;
8319;SDS011;4197;42.130;24.746;2023-04-01T09:40:57;58.43;;;20.50;;
8319;SDS011;4197;42.130;24.746;2023-04-01T09:43:33;27.60;;;9.30;;
8319;SDS011;4197;42.130;24.746;2023-04-01T09:46:20;12.67;;;7.57;;
8319;SDS011;4197;42.130;24.746;2023-04-01T09:49:00;23.67;;;8.97;;
8319;SDS011;4197;42.130;24.746;2023-04-01T09:51:58;20.40;;;8.63;;
8319;SDS011;4197;42.130;24.746;2023-04-01T09:54:39;30.83;;;11.00;;
8319;SDS011;4197;42.130;24.746;2023-04-01T10:03:28;16.03;;;7.70;;
8319;SDS011;4197;42.130;24.746;2023-04-01T10:09:49;13.60;;;7.97;;
8319;SDS011;4197;42.130;24.746;2023-04-01T10:12:43;13.07;;;7.43;;
8319;SDS011;4197;42.130;24.746;2023-04-01T10:18:57;15.68;;;9.15;;
8319;SDS011;4197;42.130;24.746;2023-04-01T10:21:48;27.80;;;7.95;;
8319;SDS011;4197;42.130;24.746;2023-04-01T10:24:51;14.43;;;7.97;;
8319;SDS011;4197;42.130;24.746;2023-04-01T10:27:43;15.82;;;7.20;;
8319;SDS011;4197;42.130;24.746;2023-04-01T10:30:42;18.42;;;8.68;;
8319;SDS011;4197;42.130;24.746;2023-04-01T10:36:43;18.35;;;7.63;;
8319;SDS011;4197;42.130;24.746;2023-04-01T10:39:31;11.98;;;7.80;;
8319;SDS011;4197;42.130;24.746;2023-04-01T10:42:15;14.38;;;7.97;;
8319;SDS011;4197;42.130;24.746;2023-04-01T10:51:37;11.43;;;6.93;;
8319;SDS011;4197;42.130;24.746;2023-04-01T10:54:22;19.92;;;8.77;;
8319;SDS011;4197;42.130;24.746;2023-04-01T10:57:09;17.95;;;7.95;;
8319;SDS011;4197;42.130;24.746;2023-04-01T11:06:30;18.15;;;8.10;;
8319;SDS011;4197;42.130;24.746;2023-04-01T11:09:27;16.00;;;7.25;;
8319;SDS011;4197;42.130;24.746;2023-04-01T11:12:20;19.15;;;8.90;;
8319;SDS011;4197;42.130;24.746;2023-04-01T11:18:32;17.80;;;9.25;;
8319;SDS011;4197;42.130;24.746;2023-04-01T11:21:29;8.98;;;6.68;;
8319;SDS011;4197;42.130;24.746;2023-04-01T11:27:34;28.80;;;9.43;;
8319;SDS011;4197;42.130;24.746;2023-04-01T11:30:22;12.30;;;6.90;;
8319;SDS011;4197;42.130;24.746;2023-04-01T11:32:59;11.23;;;6.45;;
8319;SDS011;4197;42.130;24.746;2023-04-01T11:35:47;17.52;;;11.30;;
8319;SDS011;4197;42.130;24.746;2023-04-01T11:38:35;12.02;;;6.55;;
8319;SDS011;4197;42.130;24.746;2023-04-01T11:41:19;14.82;;;7.97;;
8319;SDS011;4197;42.130;24.746;2023-04-01T11:43:57;12.77;;;6.30;;
8319;SDS011;4197;42.130;24.746;2023-04-01T11:46:40;13.23;;;6.47;;
8319;SDS011;4197;42.130;24.746;2023-04-01T11:49:28;10.98;;;5.95;;
8319;SDS011;4197;42.130;24.746;2023-04-01T11:52:06;9.55;;;6.70;;
8319;SDS011;4197;42.130;24.746;2023-04-01T11:54:50;10.70;;;6.70;;
8319;SDS011;4197;42.130;24.746;2023-04-01T11:57:38;10.60;;;6.63;;
8319;SDS011;4197;42.130;24.746;2023-04-01T12:03:27;12.77;;;7.35;;
8319;SDS011;4197;42.130;24.746;2023-04-01T12:06:16;12.40;;;7.90;;
8319;SDS011;4197;42.130;24.746;2023-04-01T12:08:53;14.25;;;7.95;;
8319;SDS011;4197;42.130;24.746;2023-04-01T12:11:32;10.52;;;6.63;;
8319;SDS011;4197;42.130;24.746;2023-04-01T12:14:11;12.95;;;6.97;;
8319;SDS011;4197;42.130;24.746;2023-04-01T12:16:50;9.68;;;6.72;;
8319;SDS011;4197;42.130;24.746;2023-04-01T12:19:27;22.80;;;9.15;;
8319;SDS011;4197;42.130;24.746;2023-04-01T12:22:09;16.20;;;8.38;;
8319;SDS011;4197;42.130;24.746;2023-04-01T12:24:52;21.95;;;8.25;;
8319;SDS011;4197;42.130;24.746;2023-04-01T12:27:37;11.55;;;6.05;;
8319;SDS011;4197;42.130;24.746;2023-04-01T12:30:14;15.68;;;7.43;;
8319;SDS011;4197;42.130;24.746;2023-04-01T12:35:59;11.07;;;6.60;;
8319;SDS011;4197;42.130;24.746;2023-04-01T12:38:39;12.27;;;6.90;;
8319;SDS011;4197;42.130;24.746;2023-04-01T12:41:17;13.45;;;6.63;;
8319;SDS011;4197;42.130;24.746;2023-04-01T12:44:04;14.27;;;7.15;;
8319;SDS011;4197;42.130;24.746;2023-04-01T12:46:54;10.20;;;5.82;;
8319;SDS011;4197;42.130;24.746;2023-04-01T12:52:33;13.90;;;6.63;;
8319;SDS011;4197;42.130;24.746;2023-04-01T12:55:31;10.82;;;5.88;;
8319;SDS011;4197;42.130;24.746;2023-04-01T13:04:24;14.23;;;6.20;;
8319;SDS011;4197;42.130;24.746;2023-04-01T13:07:23;13.68;;;6.72;;
8319;SDS011;4197;42.130;24.746;2023-04-01T13:10:13;15.13;;;6.00;;
8319;SDS011;4197;42.130;24.746;2023-04-01T13:12:52;17.45;;;6.05;;
8319;SDS011;4197;42.130;24.746;2023-04-01T13:15:43;13.05;;;5.93;;
8319;SDS011;4197;42.130;24.746;2023-04-01T13:18:22;8.93;;;5.95;;
8319;SDS011;4197;42.130;24.746;2023-04-01T13:21:01;11.60;;;6.38;;
8319;SDS011;4197;42.130;24.746;2023-04-01T13:23:39;11.57;;;6.25;;
8319;SDS011;4197;42.130;24.746;2023-04-01T13:26:29;10.60;;;7.07;;
8319;SDS011;4197;42.130;24.746;2023-04-01T13:29:10;14.70;;;6.70;;
8319;SDS011;4197;42.130;24.746;2023-04-01T13:31:49;21.23;;;6.40;;
8319;SDS011;4197;42.130;24.746;2023-04-01T13:34:35;13.15;;;6.88;;
8319;SDS011;4197;42.130;24.746;2023-04-01T13:37:20;32.60;;;7.85;;
8319;SDS011;4197;42.130;24.746;2023-04-01T13:40:02;30.70;;;7.68;;
8319;SDS011;4197;42.130;24.746;2023-04-01T13:42:47;17.92;;;8.73;;
8319;SDS011;4197;42.130;24.746;2023-04-01T13:45:21;14.02;;;8.55;;
8319;SDS011;4197;42.130;24.746;2023-04-01T13:51:10;17.50;;;8.38;;
8319;SDS011;4197;42.130;24.746;2023-04-01T13:57:11;21.03;;;9.60;;
8319;SDS011;4197;42.130;24.746;2023-04-01T13:59:53;13.70;;;7.80;;
8319;SDS011;4197;42.130;24.746;2023-04-01T14:02:50;18.53;;;7.77;;
8319;SDS011;4197;42.130;24.746;2023-04-01T14:05:37;12.70;;;8.30;;
8319;SDS011;4197;42.130;24.746;2023-04-01T14:08:20;10.13;;;6.30;;
8319;SDS011;4197;42.130;24.746;2023-04-01T14:11:06;13.43;;;7.47;;
8319;SDS011;4197;42.130;24.746;2023-04-01T14:13:43;12.50;;;7.10;;
8319;SDS011;4197;42.130;24.746;2023-04-01T14:16:47;10.83;;;7.37;;
8319;SDS011;4197;42.130;24.746;2023-04-01T14:22:31;11.93;;;7.67;;
8319;SDS011;4197;42.130;24.746;2023-04-01T14:25:31;14.17;;;8.63;;
8319;SDS011;4197;42.130;24.746;2023-04-01T14:28:13;17.17;;;8.37;;
8319;SDS011;4197;42.130;24.746;2023-04-01T14:30:52;10.80;;;7.30;;
8319;SDS011;4197;42.130;24.746;2023-04-01T14:33:36;9.50;;;5.37;;
8319;SDS011;4197;42.130;24.746;2023-04-01T14:36:23;9.65;;;6.45;;
8319;SDS011;4197;42.130;24.746;2023-04-01T14:39:23;9.73;;;5.07;;
8319;SDS011;4197;42.130;24.746;2023-04-01T14:42:11;7.87;;;4.60;;
8319;SDS011;4197;42.130;24.746;2023-04-01T14:45:04;10.02;;;5.20;;
8319;SDS011;4197;42.130;24.746;2023-04-01T14:47:54;7.10;;;4.53;;
8319;SDS011;4197;42.130;24.746;2023-04-01T14:50:40;10.17;;;4.90;;
8319;SDS011;4197;42.130;24.746;2023-04-01T14:53:11;6.75;;;4.35;;
8319;SDS011;4197;42.130;24.746;2023-04-01T14:55:52;9.30;;;4.80;;
8319;SDS011;4197;42.130;24.746;2023-04-01T14:58:22;7.00;;;4.43;;
8319;SDS011;4197;42.130;24.746;2023-04-01T15:00:59;12.88;;;5.55;;
8319;SDS011;4197;42.130;24.746;2023-04-01T15:03:38;6.87;;;4.47;;
8319;SDS011;4197;42.130;24.746;2023-04-01T15:06:24;7.60;;;4.70;;
8319;SDS011;4197;42.130;24.746;2023-04-01T15:09:10;8.27;;;4.87;;
8319;SDS011;4197;42.130;24.746;2023-04-01T15:11:53;5.17;;;3.53;;
8319;SDS011;4197;42.130;24.746;2023-04-01T15:14:43;6.17;;;4.20;;
8319;SDS011;4197;42.130;24.746;2023-04-01T15:17:31;7.67;;;3.67;;
8319;SDS011;4197;42.130;24.746;2023-04-01T15:20:15;6.37;;;4.73;;
8319;SDS011;4197;42.130;24.746;2023-04-01T15:22:57;8.47;;;5.10;;
8319;SDS011;4197;42.130;24.746;2023-04-01T15:25:45;12.63;;;7.17;;
8319;SDS011;4197;42.130;24.746;2023-04-01T15:28:28;8.90;;;5.03;;
8319;SDS011;4197;42.130;24.746;2023-04-01T15:31:04;7.67;;;5.60;;
8319;SDS011;4197;42.130;24.746;2023-04-01T15:33:45;6.53;;;5.10;;
8319;SDS011;4197;42.130;24.746;2023-04-01T15:36:28;8.23;;;5.30;;
8319;SDS011;4197;42.130;24.746;2023-04-01T15:39:09;8.17;;;4.87;;
8319;SDS011;4197;42.130;24.746;2023-04-01T15:41:43;7.60;;;4.27;;
8319;SDS011;4197;42.130;24.746;2023-04-01T15:44:37;10.20;;;5.83;;
8319;SDS011;4197;42.130;24.746;2023-04-01T15:47:31;9.70;;;4.90;;
8319;SDS011;4197;42.130;24.746;2023-04-01T15:50:16;9.10;;;6.57;;
8319;SDS011;4197;42.130;24.746;2023-04-01T15:53:06;8.20;;;5.37;;
8319;SDS011;4197;42.130;24.746;2023-04-01T15:55:53;9.20;;;4.67;;
8319;SDS011;4197;42.130;24.746;2023-04-01T15:58:31;8.93;;;5.50;;
8319;SDS011;4197;42.130;24.746;2023-04-01T16:01:18;12.10;;;6.67;;
8319;SDS011;4197;42.130;24.746;2023-04-01T16:03:54;9.27;;;4.97;;
8319;SDS011;4197;42.130;24.746;2023-04-01T16:09:30;9.67;;;5.50;;
8319;SDS011;4197;42.130;24.746;2023-04-01T16:12:19;8.17;;;4.87;;
8319;SDS011;4197;42.130;24.746;2023-04-01T16:15:04;6.07;;;4.20;;
8319;SDS011;4197;42.130;24.746;2023-04-01T16:17:54;8.63;;;4.70;;
8319;SDS011;4197;42.130;24.746;2023-04-01T16:20:42;7.33;;;5.00;;
8319;SDS011;4197;42.130;24.746;2023-04-01T16:23:16;5.13;;;4.30;;
8319;SDS011;4197;42.130;24.746;2023-04-01T16:25:53;7.27;;;4.40;;
8319;SDS011;4197;42.130;24.746;2023-04-01T16:28:34;6.77;;;4.33;;
8319;SDS011;4197;42.130;24.746;2023-04-01T16:31:08;13.13;;;5.03;;
8319;SDS011;4197;42.130;24.746;2023-04-01T16:33:44;6.70;;;4.13;;
8319;SDS011;4197;42.130;24.746;2023-04-01T16:36:23;8.37;;;4.37;;
8319;SDS011;4197;42.130;24.746;2023-04-01T16:39:02;7.03;;;4.63;;
8319;SDS011;4197;42.130;24.746;2023-04-01T16:41:41;6.70;;;4.53;;
8319;SDS011;4197;42.130;24.746;2023-04-01T16:44:17;11.10;;;5.53;;
8319;SDS011;4197;42.130;24.746;2023-04-01T16:46:50;9.73;;;4.90;;
8319;SDS011;4197;42.130;24.746;2023-04-01T16:49:24;7.97;;;5.33;;
8319;SDS011;4197;42.130;24.746;2023-04-01T16:52:00;6.47;;;4.70;;
8319;SDS011;4197;42.130;24.746;2023-04-01T16:54:51;8.90;;;4.87;;
8319;SDS011;4197;42.130;24.746;2023-04-01T16:57:25;7.90;;;4.87;;
8319;SDS011;4197;42.130;24.746;2023-04-01T16:59:57;10.03;;;5.13;;